Time,TemperatureF,DewpointF,PressureIn,WindDirection,WindDirectionDegrees,WindSpeedMPH,WindSpeedGustMPH,Humidity,HourlyPrecipIn,Conditions,Clouds,dailyrainin,SolarRadiationWatts/m^2,SoftwareType,DateUTC
2013-05-07 00:13:00,49.4,39.0,30.09,South,179,0.0,0.0,67,0.00,,,0.00,0,weatherlink.com 1.10,2013-05-07 04:13:00,
2013-05-07 00:28:00,48.5,39.0,30.09,South,180,0.0,1.0,71,0.00,,,0.00,0,weatherlink.com 1.10,2013-05-07 04:28:00,
2013-05-07 00:43:00,47.9,39.0,30.09,South,180,0.0,1.0,71,0.00,,,0.00,0,weatherlink.com 1.10,2013-05-07 04:43:00,
2013-05-07 00:58:00,47.7,40.0,30.09,South,180,0.0,1.0,74,0.00,,,0.00,0,weatherlink.com 1.10,2013-05-07 04:58:00,
2013-05-07 01:13:00,47.3,40.0,30.09,South,180,0.0,1.0,76,0.00,,,0.00,0,weatherlink.com 1.10,2013-05-07 05:13:00,
2013-05-07 01:28:00,46.8,40.0,30.09,SSW,198,0.0,2.0,77,0.00,,,0.00,0,weatherlink.com 1.10,2013-05-07 05:28:00,
2013-05-07 01:43:00,47.2,40.0,30.08,SSW,207,0.0,2.0,76,0.00,,,0.00,0,weatherlink.com 1.10,2013-05-07 05:43:00,
2013-05-07 01:58:00,47.6,41.0,30.08,SSW,207,0.0,1.0,77,0.00,,,0.00,0,weatherlink.com 1.10,2013-05-07 05:58:00,
2013-05-07 02:13:00,48.6,42.0,30.08,SSW,207,0.0,2.0,78,0.00,,,0.00,0,weatherlink.com 1.10,2013-05-07 06:13:00,
2013-05-07 02:28:00,48.5,42.0,30.08,SSW,207,0.0,1.0,78,0.00,,,0.00,0,weatherlink.com 1.10,2013-05-07 06:28:00,
2013-05-07 02:43:00,47.9,42.0,30.07,SSW,207,0.0,1.0,79,0.00,,,0.00,0,weatherlink.com 1.10,2013-05-07 06:43:00,
2013-05-07 02:58:00,48.2,42.0,30.07,SSW,207,1.0,1.0,79,0.00,,,0.00,0,weatherlink.com 1.10,2013-05-07 06:58:00,
2013-05-07 03:13:00,49.4,43.0,30.07,WNW,294,0.0,5.0,78,0.00,,,0.00,0,weatherlink.com 1.10,2013-05-07 07:13:00,
2013-05-07 03:28:00,49.8,43.0,30.07,WNW,294,0.0,1.0,76,0.00,,,0.00,0,weatherlink.com 1.10,2013-05-07 07:28:00,
2013-05-07 03:43:00,49.9,42.0,30.07,WNW,294,0.0,4.0,75,0.00,,,0.00,0,weatherlink.com 1.10,2013-05-07 07:43:00,
2013-05-07 03:58:00,49.1,42.0,30.07,SSW,205,0.0,5.0,76,0.00,,,0.00,0,weatherlink.com 1.10,2013-05-07 07:58:00,
2013-05-07 04:13:00,48.3,42.0,30.07,SSW,207,0.0,1.0,78,0.00,,,0.00,0,weatherlink.com 1.10,2013-05-07 08:13:00,
2013-05-07 04:28:00,46.4,41.0,30.07,SSW,207,0.0,1.0,81,0.00,,,0.00,0,weatherlink.com 1.10,2013-05-07 08:28:00,
2013-05-07 04:43:00,46.9,41.0,30.07,SSW,207,0.0,1.0,81,0.00,,,0.00,0,weatherlink.com 1.10,2013-05-07 08:43:00,
2013-05-07 04:58:00,46.0,41.0,30.07,SSW,207,0.0,1.0,84,0.00,,,0.00,0,weatherlink.com 1.10,2013-05-07 08:58:00,
2013-05-07 05:13:00,45.9,42.0,30.07,SSW,207,0.0,1.0,86,0.00,,,0.00,0,weatherlink.com 1.10,2013-05-07 09:13:00,
2013-05-07 05:28:00,46.0,42.0,30.07,SSW,208,0.0,1.0,87,0.00,,,0.00,0,weatherlink.com 1.10,2013-05-07 09:28:00,
2013-05-07 05:43:00,47.3,43.0,30.08,SSW,208,0.0,1.0,84,0.00,,,0.00,5,weatherlink.com 1.10,2013-05-07 09:43:00,
2013-05-07 05:58:00,47.0,43.0,30.07,SSW,207,0.0,1.0,87,0.00,,,0.00,14,weatherlink.com 1.10,2013-05-07 09:58:00,
2013-05-07 06:13:00,46.5,43.0,30.08,SW,217,0.0,2.0,87,0.00,,,0.00,35,weatherlink.com 1.10,2013-05-07 10:13:00,
2013-05-07 06:28:00,49.0,44.0,30.08,SW,217,0.0,1.0,84,0.00,,,0.00,70,weatherlink.com 1.10,2013-05-07 10:28:00,
2013-05-07 06:44:00,50.7,46.0,30.08,SW,219,0.0,1.0,83,0.00,,,0.00,123,weatherlink.com 1.10,2013-05-07 10:44:00,
2013-05-07 06:59:00,52.1,46.0,30.08,SW,219,0.0,1.0,79,0.00,,,0.00,183,weatherlink.com 1.10,2013-05-07 10:59:00,
2013-05-07 07:14:00,53.5,46.0,30.08,SW,219,0.0,4.0,76,0.00,,,0.00,236,weatherlink.com 1.10,2013-05-07 11:14:00,
2013-05-07 07:29:00,55.1,46.0,30.08,SW,219,0.0,1.0,71,0.00,,,0.00,287,weatherlink.com 1.10,2013-05-07 11:29:00,
2013-05-07 07:46:00,56.0,46.0,30.09,SW,219,0.0,2.0,68,0.00,,,0.00,343,weatherlink.com 1.10,2013-05-07 11:46:00,
2013-05-07 08:01:00,58.8,47.0,30.09,SW,219,0.0,1.0,66,0.00,,,0.00,392,weatherlink.com 1.10,2013-05-07 12:01:00,
2013-05-07 08:16:00,59.3,47.0,30.08,East,92,0.0,4.0,65,0.00,,,0.00,443,weatherlink.com 1.10,2013-05-07 12:16:00,
2013-05-07 08:31:00,60.0,48.0,30.08,SSE,163,4.0,6.0,65,0.00,,,0.00,497,weatherlink.com 1.10,2013-05-07 12:31:00,
2013-05-07 08:46:00,62.1,48.0,30.09,North,350,0.0,5.0,61,0.00,,,0.00,547,weatherlink.com 1.10,2013-05-07 12:46:00,
2013-05-07 09:01:00,64.0,49.0,30.08,NNW,347,0.0,6.0,59,0.00,,,0.00,592,weatherlink.com 1.10,2013-05-07 13:01:00,
2013-05-07 09:16:00,65.5,48.0,30.09,NNE,13,0.0,6.0,54,0.00,,,0.00,629,weatherlink.com 1.10,2013-05-07 13:16:00,
2013-05-07 09:31:00,66.5,49.0,30.08,North,360,0.0,5.0,53,0.00,,,0.00,682,weatherlink.com 1.10,2013-05-07 13:31:00,
2013-05-07 09:46:00,67.5,49.0,30.08,WNW,298,9.0,9.0,51,0.00,,,0.00,721,weatherlink.com 1.10,2013-05-07 13:46:00,
2013-05-07 10:02:00,67.6,47.0,30.08,WNW,283,0.0,7.0,47,0.00,,,0.00,766,weatherlink.com 1.10,2013-05-07 14:02:00,
2013-05-07 10:17:00,67.6,48.0,30.07,WNW,295,0.0,7.0,49,0.00,,,0.00,793,weatherlink.com 1.10,2013-05-07 14:17:00,
2013-05-07 10:32:00,69.0,36.0,30.07,North,360,4.0,10.0,30,0.00,,,0.00,831,weatherlink.com 1.10,2013-05-07 14:32:00,
2013-05-07 10:47:00,69.4,39.0,30.07,NNE,13,7.0,9.0,33,0.00,,,0.00,863,weatherlink.com 1.10,2013-05-07 14:47:00,
2013-05-07 11:02:00,70.7,40.0,30.07,NW,325,6.0,6.0,33,0.00,,,0.00,886,weatherlink.com 1.10,2013-05-07 15:02:00,
2013-05-07 11:17:00,70.2,39.0,30.07,NE,37,3.0,12.0,32,0.00,,,0.00,919,weatherlink.com 1.10,2013-05-07 15:17:00,
2013-05-07 11:32:00,70.7,46.0,30.07,NNW,335,1.0,9.0,41,0.00,,,0.00,933,weatherlink.com 1.10,2013-05-07 15:32:00,
2013-05-07 11:47:00,69.8,46.0,30.07,ESE,111,5.0,10.0,43,0.00,,,0.00,935,weatherlink.com 1.10,2013-05-07 15:47:00,
2013-05-07 12:02:00,69.2,44.0,30.07,South,186,6.0,10.0,41,0.00,,,0.00,958,weatherlink.com 1.10,2013-05-07 16:02:00,
2013-05-07 12:18:00,69.7,44.0,30.06,ENE,68,2.0,6.0,39,0.00,,,0.00,972,weatherlink.com 1.10,2013-05-07 16:18:00,
2013-05-07 12:34:00,70.8,43.0,30.06,ESE,119,1.0,11.0,37,0.00,,,0.00,981,weatherlink.com 1.10,2013-05-07 16:34:00,
2013-05-07 12:48:00,70.3,41.0,30.05,NW,323,6.0,9.0,35,0.00,,,0.00,981,weatherlink.com 1.10,2013-05-07 16:48:00,
2013-05-07 13:03:00,70.4,41.0,30.05,South,178,0.0,9.0,35,0.00,,,0.00,988,weatherlink.com 1.10,2013-05-07 17:03:00,
2013-05-07 13:19:00,71.7,43.0,30.05,SE,136,9.0,11.0,35,0.00,,,0.00,997,weatherlink.com 1.10,2013-05-07 17:19:00,
2013-05-07 13:33:00,71.3,42.0,30.05,SSE,164,1.0,13.0,35,0.00,,,0.00,995,weatherlink.com 1.10,2013-05-07 17:33:00,
2013-05-07 13:49:00,71.3,41.0,30.05,NNW,341,5.0,11.0,34,0.00,,,0.00,1002,weatherlink.com 1.10,2013-05-07 17:49:00,
2013-05-07 14:04:00,72.7,44.0,30.04,South,186,2.0,13.0,36,0.00,,,0.00,977,weatherlink.com 1.10,2013-05-07 18:04:00,
2013-05-07 14:19:00,72.2,44.0,30.04,East,90,7.0,13.0,36,0.00,,,0.00,949,weatherlink.com 1.10,2013-05-07 18:19:00,
2013-05-07 14:35:00,71.3,44.0,30.03,SSE,156,7.0,13.0,37,0.00,,,0.00,919,weatherlink.com 1.10,2013-05-07 18:35:00,
2013-05-07 14:49:00,72.1,45.0,30.03,North,5,1.0,20.0,38,0.00,,,0.00,893,weatherlink.com 1.10,2013-05-07 18:49:00,
2013-05-07 15:04:00,73.2,43.0,30.03,SE,140,3.0,8.0,34,0.00,,,0.00,858,weatherlink.com 1.10,2013-05-07 19:04:00,
2013-05-07 15:21:00,72.1,43.0,30.02,NNE,29,0.0,8.0,35,0.00,,,0.00,810,weatherlink.com 1.10,2013-05-07 19:21:00,
2013-05-07 15:35:00,72.5,42.0,30.02,ESE,113,7.0,12.0,34,0.00,,,0.00,765,weatherlink.com 1.10,2013-05-07 19:35:00,
2013-05-07 15:51:00,72.8,42.0,30.02,ESE,119,2.0,10.0,33,0.00,,,0.00,722,weatherlink.com 1.10,2013-05-07 19:51:00,
2013-05-07 16:05:00,72.5,42.0,30.01,East,96,5.0,12.0,34,0.00,,,0.00,677,weatherlink.com 1.10,2013-05-07 20:05:00,
2013-05-07 16:21:00,72.4,42.0,30.01,SSE,155,6.0,12.0,33,0.00,,,0.00,631,weatherlink.com 1.10,2013-05-07 20:21:00,
2013-05-07 16:36:00,72.2,41.0,30.01,SSE,159,4.0,10.0,32,0.00,,,0.00,596,weatherlink.com 1.10,2013-05-07 20:36:00,
2013-05-07 16:51:00,72.7,39.0,30.00,SSE,147,8.0,11.0,29,0.00,,,0.00,543,weatherlink.com 1.10,2013-05-07 20:51:00,
2013-05-07 17:06:00,72.2,38.0,30.01,SE,142,7.0,8.0,29,0.00,,,0.00,492,weatherlink.com 1.10,2013-05-07 21:06:00,
2013-05-07 17:21:00,72.3,38.0,30.01,ESE,105,8.0,12.0,29,0.00,,,0.00,438,weatherlink.com 1.10,2013-05-07 21:21:00,
2013-05-07 17:36:00,71.7,37.0,30.01,ENE,75,4.0,11.0,28,0.00,,,0.00,390,weatherlink.com 1.10,2013-05-07 21:36:00,
2013-05-07 17:51:00,71.2,36.0,30.01,SSE,164,5.0,11.0,28,0.00,,,0.00,295,weatherlink.com 1.10,2013-05-07 21:51:00,
2013-05-07 18:06:00,70.5,36.0,30.01,SE,134,7.0,16.0,28,0.00,,,0.00,281,weatherlink.com 1.10,2013-05-07 22:06:00,
2013-05-07 18:21:00,69.9,36.0,30.01,SSE,166,8.0,13.0,29,0.00,,,0.00,202,weatherlink.com 1.10,2013-05-07 22:21:00,
2013-05-07 18:36:00,69.0,37.0,30.02,SSE,155,9.0,11.0,31,0.00,,,0.00,54,weatherlink.com 1.10,2013-05-07 22:36:00,
2013-05-07 18:52:00,68.2,38.0,30.02,SSE,152,2.0,11.0,33,0.00,,,0.00,32,weatherlink.com 1.10,2013-05-07 22:52:00,
2013-05-07 19:07:00,67.4,39.0,30.03,SSE,161,10.0,12.0,35,0.00,,,0.00,16,weatherlink.com 1.10,2013-05-07 23:07:00,
2013-05-07 19:22:00,66.5,40.0,30.03,South,180,0.0,7.0,38,0.00,,,0.00,16,weatherlink.com 1.10,2013-05-07 23:22:00,
2013-05-07 19:37:00,65.2,39.0,30.04,SSW,194,0.0,5.0,39,0.00,,,0.00,11,weatherlink.com 1.10,2013-05-07 23:37:00,
2013-05-07 19:52:00,63.4,40.0,30.04,SSW,194,0.0,1.0,42,0.00,,,0.00,5,weatherlink.com 1.10,2013-05-07 23:52:00,
2013-05-07 20:08:00,62.2,40.0,30.04,SSW,194,0.0,1.0,44,0.00,,,0.00,0,weatherlink.com 1.10,2013-05-08 00:08:00,
2013-05-07 20:23:00,61.2,40.0,30.05,SSW,194,0.0,1.0,46,0.00,,,0.00,0,weatherlink.com 1.10,2013-05-08 00:23:00,
2013-05-07 20:38:00,60.7,41.0,30.05,SSW,194,0.0,1.0,48,0.00,,,0.00,0,weatherlink.com 1.10,2013-05-08 00:38:00,
2013-05-07 20:53:00,59.9,42.0,30.06,SSW,194,0.0,1.0,51,0.00,,,0.00,0,weatherlink.com 1.10,2013-05-08 00:53:00,
2013-05-07 21:08:00,59.4,43.0,30.07,SSW,194,0.0,4.0,54,0.00,,,0.00,0,weatherlink.com 1.10,2013-05-08 01:08:00,
2013-05-07 21:23:00,59.0,44.0,30.07,South,171,0.0,2.0,58,0.00,,,0.00,0,weatherlink.com 1.10,2013-05-08 01:23:00,
2013-05-07 21:38:00,58.4,45.0,30.07,South,171,0.0,0.0,62,0.00,,,0.00,0,weatherlink.com 1.10,2013-05-08 01:38:00,
2013-05-07 21:53:00,57.8,47.0,30.07,South,174,0.0,4.0,67,0.00,,,0.00,0,weatherlink.com 1.10,2013-05-08 01:53:00,
2013-05-07 22:08:00,57.4,48.0,30.07,South,174,0.0,1.0,71,0.00,,,0.00,0,weatherlink.com 1.10,2013-05-08 02:08:00,
2013-05-07 22:23:00,56.9,49.0,30.07,South,175,0.0,1.0,74,0.00,,,0.00,0,weatherlink.com 1.10,2013-05-08 02:23:00,
2013-05-07 22:38:00,56.6,49.0,30.07,South,190,0.0,1.0,77,0.00,,,0.00,0,weatherlink.com 1.10,2013-05-08 02:38:00,
2013-05-07 22:53:00,56.1,50.0,30.08,South,190,0.0,0.0,79,0.00,,,0.00,0,weatherlink.com 1.10,2013-05-08 02:53:00,
2013-05-07 23:08:00,55.7,50.0,30.08,South,190,0.0,0.0,81,0.00,,,0.00,0,weatherlink.com 1.10,2013-05-08 03:08:00,
2013-05-07 23:23:00,55.4,50.0,30.08,South,190,0.0,1.0,82,0.00,,,0.00,0,weatherlink.com 1.10,2013-05-08 03:23:00,
2013-05-07 23:38:00,54.9,50.0,30.08,South,190,1.0,1.0,83,0.00,,,0.00,0,weatherlink.com 1.10,2013-05-08 03:38:00,
2013-05-07 23:53:00,54.2,50.0,30.08,SSW,195,0.0,4.0,85,0.00,,,0.00,0,weatherlink.com 1.10,2013-05-08 03:53:00,